sensor_id;sensor_type;location;lat;lon;timestamp;P1;durP1;ratioP1;P2;durP2;ratioP2
14883;SDS011;7534;50.762;7.000;2023-04-24T00:00:34;1.10;;;1.10;;
14883;SDS011;7534;50.762;7.000;2023-04-24T00:03:00;1.00;;;1.00;;
14883;SDS011;7534;50.762;7.000;2023-04-24T00:05:27;2.77;;;1.30;;
14883;SDS011;7534;50.762;7.000;2023-04-24T00:07:53;1.13;;;1.03;;
14883;SDS011;7534;50.762;7.000;2023-04-24T00:10:20;1.03;;;0.93;;
14883;SDS011;7534;50.762;7.000;2023-04-24T00:12:46;1.20;;;1.10;;
14883;SDS011;7534;50.762;7.000;2023-04-24T00:15:12;1.20;;;1.10;;
14883;SDS011;7534;50.762;7.000;2023-04-24T00:17:53;1.23;;;1.00;;
14883;SDS011;7534;50.762;7.000;2023-04-24T00:20:18;1.40;;;1.10;;
14883;SDS011;7534;50.762;7.000;2023-04-24T00:22:44;0.90;;;0.90;;
14883;SDS011;7534;50.762;7.000;2023-04-24T00:25:09;1.10;;;1.00;;
14883;SDS011;7534;50.762;7.000;2023-04-24T00:27:35;1.07;;;1.00;;
14883;SDS011;7534;50.762;7.000;2023-04-24T00:30:02;2.23;;;1.00;;
14883;SDS011;7534;50.762;7.000;2023-04-24T00:32:28;0.90;;;0.90;;
14883;SDS011;7534;50.762;7.000;2023-04-24T00:34:54;0.90;;;0.90;;
14883;SDS011;7534;50.762;7.000;2023-04-24T00:37:20;0.90;;;0.90;;
14883;SDS011;7534;50.762;7.000;2023-04-24T00:39:46;2.17;;;1.00;;
14883;SDS011;7534;50.762;7.000;2023-04-24T00:42:11;0.90;;;0.90;;
14883;SDS011;7534;50.762;7.000;2023-04-24T00:44:37;1.17;;;0.97;;
14883;SDS011;7534;50.762;7.000;2023-04-24T00:47:03;1.27;;;0.97;;
14883;SDS011;7534;50.762;7.000;2023-04-24T00:49:30;1.27;;;1.00;;
14883;SDS011;7534;50.762;7.000;2023-04-24T00:51:55;1.57;;;0.90;;
14883;SDS011;7534;50.762;7.000;2023-04-24T00:54:21;0.90;;;0.90;;
14883;SDS011;7534;50.762;7.000;2023-04-24T00:56:47;0.90;;;0.77;;
14883;SDS011;7534;50.762;7.000;2023-04-24T00:59:14;0.90;;;0.90;;
14883;SDS011;7534;50.762;7.000;2023-04-24T01:01:42;0.90;;;0.90;;
14883;SDS011;7534;50.762;7.000;2023-04-24T01:04:10;1.03;;;0.93;;
14883;SDS011;7534;50.762;7.000;2023-04-24T01:06:40;1.07;;;1.07;;
14883;SDS011;7534;50.762;7.000;2023-04-24T01:09:09;1.13;;;0.80;;
14883;SDS011;7534;50.762;7.000;2023-04-24T01:11:37;1.00;;;1.00;;
14883;SDS011;7534;50.762;7.000;2023-04-24T01:14:05;0.87;;;0.80;;
14883;SDS011;7534;50.762;7.000;2023-04-24T01:16:31;1.23;;;1.13;;
14883;SDS011;7534;50.762;7.000;2023-04-24T01:18:57;1.97;;;1.40;;
14883;SDS011;7534;50.762;7.000;2023-04-24T01:21:23;2.00;;;1.67;;
14883;SDS011;7534;50.762;7.000;2023-04-24T01:23:52;2.00;;;1.30;;
14883;SDS011;7534;50.762;7.000;2023-04-24T01:26:19;1.53;;;1.40;;
14883;SDS011;7534;50.762;7.000;2023-04-24T01:28:46;1.47;;;1.37;;
14883;SDS011;7534;50.762;7.000;2023-04-24T01:31:13;1.50;;;1.40;;
14883;SDS011;7534;50.762;7.000;2023-04-24T01:33:40;1.90;;;1.40;;
14883;SDS011;7534;50.762;7.000;2023-04-24T01:36:07;1.60;;;1.50;;
14883;SDS011;7534;50.762;7.000;2023-04-24T01:38:38;1.90;;;1.80;;
14883;SDS011;7534;50.762;7.000;2023-04-24T01:41:04;2.00;;;1.90;;
14883;SDS011;7534;50.762;7.000;2023-04-24T01:43:30;2.43;;;1.60;;
14883;SDS011;7534;50.762;7.000;2023-04-24T01:45:56;1.90;;;1.80;;
14883;SDS011;7534;50.762;7.000;2023-04-24T01:48:22;1.80;;;1.70;;
14883;SDS011;7534;50.762;7.000;2023-04-24T01:50:47;2.03;;;1.90;;
14883;SDS011;7534;50.762;7.000;2023-04-24T01:53:13;1.90;;;1.60;;
14883;SDS011;7534;50.762;7.000;2023-04-24T01:55:39;2.00;;;1.70;;
14883;SDS011;7534;50.762;7.000;2023-04-24T01:58:06;2.00;;;1.50;;
14883;SDS011;7534;50.762;7.000;2023-04-24T02:00:32;1.97;;;1.60;;
14883;SDS011;7534;50.762;7.000;2023-04-24T02:02:58;2.20;;;1.83;;
14883;SDS011;7534;50.762;7.000;2023-04-24T02:05:24;1.83;;;1.73;;
14883;SDS011;7534;50.762;7.000;2023-04-24T02:07:49;1.93;;;1.80;;
14883;SDS011;7534;50.762;7.000;2023-04-24T02:10:15;1.97;;;1.70;;
14883;SDS011;7534;50.762;7.000;2023-04-24T02:12:41;3.33;;;2.03;;
14883;SDS011;7534;50.762;7.000;2023-04-24T02:15:06;3.20;;;1.60;;
14883;SDS011;7534;50.762;7.000;2023-04-24T02:17:33;2.70;;;2.50;;
14883;SDS011;7534;50.762;7.000;2023-04-24T02:19:58;3.97;;;3.10;;
14883;SDS011;7534;50.762;7.000;2023-04-24T02:22:24;3.60;;;3.30;;
14883;SDS011;7534;50.762;7.000;2023-04-24T02:24:49;4.00;;;3.60;;
14883;SDS011;7534;50.762;7.000;2023-04-24T02:27:15;5.17;;;4.00;;
14883;SDS011;7534;50.762;7.000;2023-04-24T02:29:41;4.30;;;3.90;;
14883;SDS011;7534;50.762;7.000;2023-04-24T02:32:06;4.67;;;4.00;;
14883;SDS011;7534;50.762;7.000;2023-04-24T02:34:36;4.30;;;3.90;;
14883;SDS011;7534;50.762;7.000;2023-04-24T02:37:01;4.40;;;4.00;;
14883;SDS011;7534;50.762;7.000;2023-04-24T02:39:27;4.33;;;3.93;;
14883;SDS011;7534;50.762;7.000;2023-04-24T02:41:53;4.40;;;4.00;;
14883;SDS011;7534;50.762;7.000;2023-04-24T02:44:18;5.33;;;4.00;;
14883;SDS011;7534;50.762;7.000;2023-04-24T02:46:44;4.70;;;3.77;;
14883;SDS011;7534;50.762;7.000;2023-04-24T02:49:11;4.80;;;4.40;;
14883;SDS011;7534;50.762;7.000;2023-04-24T02:51:37;5.73;;;4.20;;
14883;SDS011;7534;50.762;7.000;2023-04-24T02:54:05;5.13;;;4.13;;
14883;SDS011;7534;50.762;7.000;2023-04-24T02:56:33;4.90;;;4.30;;
14883;SDS011;7534;50.762;7.000;2023-04-24T02:58:59;4.40;;;4.00;;
14883;SDS011;7534;50.762;7.000;2023-04-24T03:01:24;5.23;;;3.97;;
14883;SDS011;7534;50.762;7.000;2023-04-24T03:03:50;4.77;;;4.07;;
14883;SDS011;7534;50.762;7.000;2023-04-24T03:06:16;5.83;;;3.90;;
14883;SDS011;7534;50.762;7.000;2023-04-24T03:08:42;8.23;;;4.73;;
14883;SDS011;7534;50.762;7.000;2023-04-24T03:11:07;4.77;;;4.27;;
14883;SDS011;7534;50.762;7.000;2023-04-24T03:13:33;6.03;;;4.03;;
14883;SDS011;7534;50.762;7.000;2023-04-24T03:15:58;5.30;;;4.53;;
14883;SDS011;7534;50.762;7.000;2023-04-24T03:18:24;4.30;;;3.90;;
14883;SDS011;7534;50.762;7.000;2023-04-24T03:20:50;5.90;;;4.13;;
14883;SDS011;7534;50.762;7.000;2023-04-24T03:23:16;4.60;;;4.20;;
14883;SDS011;7534;50.762;7.000;2023-04-24T03:25:42;4.50;;;4.10;;
14883;SDS011;7534;50.762;7.000;2023-04-24T03:28:08;4.30;;;3.87;;
14883;SDS011;7534;50.762;7.000;2023-04-24T03:30:33;4.73;;;4.17;;
14883;SDS011;7534;50.762;7.000;2023-04-24T03:32:59;4.17;;;3.83;;
14883;SDS011;7534;50.762;7.000;2023-04-24T03:35:25;6.27;;;4.47;;
14883;SDS011;7534;50.762;7.000;2023-04-24T03:37:51;4.47;;;3.90;;
14883;SDS011;7534;50.762;7.000;2023-04-24T03:40:16;5.33;;;4.67;;
14883;SDS011;7534;50.762;7.000;2023-04-24T03:42:42;5.80;;;4.50;;
14883;SDS011;7534;50.762;7.000;2023-04-24T03:45:08;4.87;;;4.40;;
14883;SDS011;7534;50.762;7.000;2023-04-24T03:47:34;5.30;;;4.60;;
14883;SDS011;7534;50.762;7.000;2023-04-24T03:50:01;4.70;;;4.30;;
14883;SDS011;7534;50.762;7.000;2023-04-24T03:52:26;6.27;;;4.30;;
14883;SDS011;7534;50.762;7.000;2023-04-24T03:54:52;5.07;;;4.43;;
14883;SDS011;7534;50.762;7.000;2023-04-24T03:57:18;5.40;;;4.70;;
14883;SDS011;7534;50.762;7.000;2023-04-24T03:59:43;5.07;;;4.57;;
14883;SDS011;7534;50.762;7.000;2023-04-24T04:02:09;4.50;;;4.10;;
14883;SDS011;7534;50.762;7.000;2023-04-24T04:04:35;5.23;;;4.73;;
14883;SDS011;7534;50.762;7.000;2023-04-24T04:07:00;5.53;;;4.67;;
14883;SDS011;7534;50.762;7.000;2023-04-24T04:09:27;6.37;;;4.67;;
14883;SDS011;7534;50.762;7.000;2023-04-24T04:11:54;6.07;;;5.10;;
14883;SDS011;7534;50.762;7.000;2023-04-24T04:14:20;5.57;;;4.73;;
14883;SDS011;7534;50.762;7.000;2023-04-24T04:16:46;5.90;;;5.00;;
14883;SDS011;7534;50.762;7.000;2023-04-24T04:19:12;8.00;;;4.90;;
14883;SDS011;7534;50.762;7.000;2023-04-24T04:21:38;6.90;;;5.17;;
14883;SDS011;7534;50.762;7.000;2023-04-24T04:24:03;5.43;;;4.93;;
14883;SDS011;7534;50.762;7.000;2023-04-24T04:26:30;5.87;;;4.87;;
14883;SDS011;7534;50.762;7.000;2023-04-24T04:28:57;5.33;;;4.83;;
14883;SDS011;7534;50.762;7.000;2023-04-24T04:31:27;6.73;;;5.17;;
14883;SDS011;7534;50.762;7.000;2023-04-24T04:33:52;5.77;;;5.10;;
14883;SDS011;7534;50.762;7.000;2023-04-24T04:36:18;5.47;;;4.70;;
14883;SDS011;7534;50.762;7.000;2023-04-24T04:38:44;6.10;;;5.17;;
14883;SDS011;7534;50.762;7.000;2023-04-24T04:41:10;5.30;;;4.80;;
14883;SDS011;7534;50.762;7.000;2023-04-24T04:43:35;5.90;;;4.80;;
14883;SDS011;7534;50.762;7.000;2023-04-24T04:46:03;5.37;;;4.87;;
14883;SDS011;7534;50.762;7.000;2023-04-24T04:48:28;5.93;;;4.87;;
14883;SDS011;7534;50.762;7.000;2023-04-24T04:50:56;6.47;;;5.00;;
14883;SDS011;7534;50.762;7.000;2023-04-24T04:53:22;5.93;;;5.20;;
14883;SDS011;7534;50.762;7.000;2023-04-24T04:55:48;5.80;;;5.20;;
14883;SDS011;7534;50.762;7.000;2023-04-24T04:58:14;5.13;;;4.57;;
14883;SDS011;7534;50.762;7.000;2023-04-24T05:00:39;5.40;;;4.90;;
14883;SDS011;7534;50.762;7.000;2023-04-24T05:03:06;4.90;;;4.50;;
14883;SDS011;7534;50.762;7.000;2023-04-24T05:05:32;5.57;;;4.97;;
14883;SDS011;7534;50.762;7.000;2023-04-24T05:07:57;6.90;;;4.60;;
14883;SDS011;7534;50.762;7.000;2023-04-24T05:10:23;5.30;;;4.77;;
14883;SDS011;7534;50.762;7.000;2023-04-24T05:12:49;5.23;;;4.57;;
14883;SDS011;7534;50.762;7.000;2023-04-24T05:15:14;5.20;;;4.70;;
14883;SDS011;7534;50.762;7.000;2023-04-24T05:17:40;5.60;;;4.80;;
14883;SDS011;7534;50.762;7.000;2023-04-24T05:20:06;5.03;;;4.53;;
14883;SDS011;7534;50.762;7.000;2023-04-24T05:22:32;5.43;;;4.60;;
14883;SDS011;7534;50.762;7.000;2023-04-24T05:24:58;5.07;;;4.57;;
14883;SDS011;7534;50.762;7.000;2023-04-24T05:27:24;7.13;;;5.27;;
14883;SDS011;7534;50.762;7.000;2023-04-24T05:29:49;5.30;;;4.80;;
14883;SDS011;7534;50.762;7.000;2023-04-24T05:32:15;5.50;;;4.90;;
14883;SDS011;7534;50.762;7.000;2023-04-24T05:34:41;5.77;;;5.10;;
14883;SDS011;7534;50.762;7.000;2023-04-24T05:37:07;7.10;;;6.10;;
14883;SDS011;7534;50.762;7.000;2023-04-24T05:39:34;5.50;;;4.73;;
14883;SDS011;7534;50.762;7.000;2023-04-24T05:42:00;6.00;;;4.53;;
14883;SDS011;7534;50.762;7.000;2023-04-24T05:44:28;5.60;;;4.30;;
14883;SDS011;7534;50.762;7.000;2023-04-24T05:46:54;5.23;;;4.57;;
14883;SDS011;7534;50.762;7.000;2023-04-24T05:49:20;5.67;;;4.30;;
14883;SDS011;7534;50.762;7.000;2023-04-24T05:51:46;7.27;;;4.33;;
14883;SDS011;7534;50.762;7.000;2023-04-24T05:54:12;4.70;;;3.93;;
14883;SDS011;7534;50.762;7.000;2023-04-24T05:56:38;5.10;;;4.30;;
14883;SDS011;7534;50.762;7.000;2023-04-24T05:59:05;6.23;;;4.53;;
14883;SDS011;7534;50.762;7.000;2023-04-24T06:01:30;6.40;;;4.67;;
14883;SDS011;7534;50.762;7.000;2023-04-24T06:03:56;5.00;;;4.50;;
14883;SDS011;7534;50.762;7.000;2023-04-24T06:06:23;5.50;;;4.93;;
14883;SDS011;7534;50.762;7.000;2023-04-24T06:08:49;4.93;;;4.43;;
14883;SDS011;7534;50.762;7.000;2023-04-24T06:11:15;6.07;;;4.97;;
14883;SDS011;7534;50.762;7.000;2023-04-24T06:13:40;4.93;;;4.50;;
14883;SDS011;7534;50.762;7.000;2023-04-24T06:16:06;5.63;;;5.00;;
14883;SDS011;7534;50.762;7.000;2023-04-24T06:18:32;5.17;;;4.40;;
14883;SDS011;7534;50.762;7.000;2023-04-24T06:20:58;6.57;;;4.67;;
14883;SDS011;7534;50.762;7.000;2023-04-24T06:23:24;5.60;;;4.50;;
14883;SDS011;7534;50.762;7.000;2023-04-24T06:25:50;4.77;;;3.83;;
14883;SDS011;7534;50.762;7.000;2023-04-24T06:28:16;4.97;;;3.80;;
14883;SDS011;7534;50.762;7.000;2023-04-24T06:30:42;4.87;;;3.70;;
14883;SDS011;7534;50.762;7.000;2023-04-24T06:33:08;4.80;;;3.60;;
14883;SDS011;7534;50.762;7.000;2023-04-24T06:35:34;5.33;;;4.17;;
14883;SDS011;7534;50.762;7.000;2023-04-24T06:38:01;5.27;;;3.83;;
14883;SDS011;7534;50.762;7.000;2023-04-24T06:40:26;4.33;;;3.30;;
14883;SDS011;7534;50.762;7.000;2023-04-24T06:42:53;4.13;;;3.73;;
14883;SDS011;7534;50.762;7.000;2023-04-24T06:45:18;4.00;;;3.33;;
14883;SDS011;7534;50.762;7.000;2023-04-24T06:47:44;3.10;;;2.77;;
14883;SDS011;7534;50.762;7.000;2023-04-24T06:50:10;3.13;;;2.87;;
14883;SDS011;7534;50.762;7.000;2023-04-24T06:52:36;3.13;;;2.83;;
14883;SDS011;7534;50.762;7.000;2023-04-24T06:55:02;3.57;;;2.70;;
14883;SDS011;7534;50.762;7.000;2023-04-24T06:57:29;2.63;;;2.43;;
14883;SDS011;7534;50.762;7.000;2023-04-24T06:59:55;3.23;;;2.60;;
14883;SDS011;7534;50.762;7.000;2023-04-24T07:02:21;2.70;;;2.30;;
14883;SDS011;7534;50.762;7.000;2023-04-24T07:04:46;3.10;;;2.30;;
14883;SDS011;7534;50.762;7.000;2023-04-24T07:07:12;2.50;;;2.30;;
14883;SDS011;7534;50.762;7.000;2023-04-24T07:09:42;3.63;;;2.60;;
14883;SDS011;7534;50.762;7.000;2023-04-24T07:12:08;2.80;;;2.60;;
14883;SDS011;7534;50.762;7.000;2023-04-24T07:14:35;2.27;;;2.07;;
14883;SDS011;7534;50.762;7.000;2023-04-24T07:17:03;2.60;;;2.23;;
14883;SDS011;7534;50.762;7.000;2023-04-24T07:19:32;2.47;;;2.00;;
14883;SDS011;7534;50.762;7.000;2023-04-24T07:22:02;2.20;;;2.00;;
14883;SDS011;7534;50.762;7.000;2023-04-24T07:24:28;1.90;;;1.80;;
14883;SDS011;7534;50.762;7.000;2023-04-24T07:26:54;1.87;;;1.73;;
14883;SDS011;7534;50.762;7.000;2023-04-24T07:29:20;1.87;;;1.77;;
14883;SDS011;7534;50.762;7.000;2023-04-24T07:31:46;2.00;;;1.80;;
14883;SDS011;7534;50.762;7.000;2023-04-24T07:34:13;1.73;;;1.63;;
14883;SDS011;7534;50.762;7.000;2023-04-24T07:36:38;1.70;;;1.60;;
14883;SDS011;7534;50.762;7.000;2023-04-24T07:39:06;1.60;;;1.50;;
14883;SDS011;7534;50.762;7.000;2023-04-24T07:41:33;1.70;;;1.60;;
14883;SDS011;7534;50.762;7.000;2023-04-24T07:43:58;1.67;;;1.57;;
14883;SDS011;7534;50.762;7.000;2023-04-24T07:46:24;1.93;;;1.83;;
14883;SDS011;7534;50.762;7.000;2023-04-24T07:48:50;2.17;;;2.00;;
14883;SDS011;7534;50.762;7.000;2023-04-24T07:51:16;1.93;;;1.80;;
14883;SDS011;7534;50.762;7.000;2023-04-24T07:53:42;2.10;;;1.67;;
14883;SDS011;7534;50.762;7.000;2023-04-24T07:56:08;2.77;;;1.90;;
14883;SDS011;7534;50.762;7.000;2023-04-24T07:58:34;1.70;;;1.60;;
14883;SDS011;7534;50.762;7.000;2023-04-24T08:01:00;1.63;;;1.53;;
14883;SDS011;7534;50.762;7.000;2023-04-24T08:03:25;1.40;;;1.30;;
14883;SDS011;7534;50.762;7.000;2023-04-24T08:05:51;1.50;;;1.40;;
14883;SDS011;7534;50.762;7.000;2023-04-24T08:08:17;2.80;;;1.30;;
14883;SDS011;7534;50.762;7.000;2023-04-24T08:10:46;1.37;;;1.27;;
14883;SDS011;7534;50.762;7.000;2023-04-24T08:13:11;1.40;;;1.30;;
14883;SDS011;7534;50.762;7.000;2023-04-24T08:15:38;1.67;;;1.40;;
14883;SDS011;7534;50.762;7.000;2023-04-24T08:18:04;2.50;;;1.67;;
14883;SDS011;7534;50.762;7.000;2023-04-24T08:20:30;2.27;;;1.50;;
14883;SDS011;7534;50.762;7.000;2023-04-24T08:22:56;2.10;;;1.90;;
14883;SDS011;7534;50.762;7.000;2023-04-24T08:25:21;2.70;;;1.67;;
14883;SDS011;7534;50.762;7.000;2023-04-24T08:27:49;1.60;;;1.50;;
14883;SDS011;7534;50.762;7.000;2023-04-24T08:30:15;1.90;;;1.80;;
14883;SDS011;7534;50.762;7.000;2023-04-24T08:32:41;2.20;;;2.00;;
14883;SDS011;7534;50.762;7.000;2023-04-24T08:35:07;3.83;;;2.20;;
14883;SDS011;7534;50.762;7.000;2023-04-24T08:37:34;2.40;;;2.20;;
14883;SDS011;7534;50.762;7.000;2023-04-24T08:40:01;3.13;;;2.40;;
14883;SDS011;7534;50.762;7.000;2023-04-24T08:42:36;2.57;;;2.20;;
14883;SDS011;7534;50.762;7.000;2023-04-24T08:45:03;4.47;;;2.30;;
14883;SDS011;7534;50.762;7.000;2023-04-24T08:47:30;3.28;;;2.75;;
14883;SDS011;7534;50.762;7.000;2023-04-24T08:49:58;3.20;;;2.90;;
14883;SDS011;7534;50.762;7.000;2023-04-24T08:52:27;3.47;;;2.83;;
14883;SDS011;7534;50.762;7.000;2023-04-24T08:54:54;3.00;;;2.70;;
14883;SDS011;7534;50.762;7.000;2023-04-24T08:57:21;4.73;;;2.80;;
14883;SDS011;7534;50.762;7.000;2023-04-24T08:59:47;4.23;;;3.07;;
14883;SDS011;7534;50.762;7.000;2023-04-24T09:02:14;3.57;;;3.23;;
14883;SDS011;7534;50.762;7.000;2023-04-24T09:04:41;4.30;;;3.33;;
14883;SDS011;7534;50.762;7.000;2023-04-24T09:07:10;4.00;;;3.60;;
14883;SDS011;7534;50.762;7.000;2023-04-24T09:09:39;5.20;;;3.20;;
14883;SDS011;7534;50.762;7.000;2023-04-24T09:12:06;5.90;;;3.63;;
14883;SDS011;7534;50.762;7.000;2023-04-24T09:14:36;5.07;;;3.60;;
14883;SDS011;7534;50.762;7.000;2023-04-24T09:17:04;5.23;;;3.87;;
14883;SDS011;7534;50.762;7.000;2023-04-24T09:19:31;6.60;;;3.87;;
14883;SDS011;7534;50.762;7.000;2023-04-24T09:21:57;7.87;;;3.97;;
14883;SDS011;7534;50.762;7.000;2023-04-24T09:24:23;5.00;;;4.07;;
14883;SDS011;7534;50.762;7.000;2023-04-24T09:26:49;8.40;;;4.50;;
14883;SDS011;7534;50.762;7.000;2023-04-24T09:29:23;4.50;;;4.00;;
14883;SDS011;7534;50.762;7.000;2023-04-24T09:31:50;5.23;;;4.20;;
14883;SDS011;7534;50.762;7.000;2023-04-24T09:34:20;4.60;;;4.13;;
14883;SDS011;7534;50.762;7.000;2023-04-24T09:36:51;5.33;;;4.27;;
14883;SDS011;7534;50.762;7.000;2023-04-24T09:39:18;5.53;;;4.43;;
14883;SDS011;7534;50.762;7.000;2023-04-24T09:41:54;10.47;;;4.60;;
14883;SDS011;7534;50.762;7.000;2023-04-24T09:44:26;6.83;;;4.80;;
14883;SDS011;7534;50.762;7.000;2023-04-24T09:47:08;5.57;;;4.40;;
14883;SDS011;7534;50.762;7.000;2023-04-24T09:49:41;7.33;;;5.03;;
14883;SDS011;7534;50.762;7.000;2023-04-24T09:52:10;5.03;;;4.03;;
14883;SDS011;7534;50.762;7.000;2023-04-24T09:54:36;5.47;;;4.40;;
14883;SDS011;7534;50.762;7.000;2023-04-24T09:57:03;5.37;;;4.40;;
14883;SDS011;7534;50.762;7.000;2023-04-24T09:59:30;5.53;;;4.30;;
14883;SDS011;7534;50.762;7.000;2023-04-24T10:01:55;5.60;;;4.20;;
14883;SDS011;7534;50.762;7.000;2023-04-24T10:04:24;5.30;;;4.20;;
14883;SDS011;7534;50.762;7.000;2023-04-24T10:06:53;5.27;;;3.97;;
14883;SDS011;7534;50.762;7.000;2023-04-24T10:09:22;6.00;;;4.40;;
14883;SDS011;7534;50.762;7.000;2023-04-24T10:11:52;5.10;;;3.90;;
14883;SDS011;7534;50.762;7.000;2023-04-24T10:14:23;4.33;;;3.90;;
14883;SDS011;7534;50.762;7.000;2023-04-24T10:16:52;5.83;;;4.10;;
14883;SDS011;7534;50.762;7.000;2023-04-24T10:19:21;5.83;;;4.17;;
14883;SDS011;7534;50.762;7.000;2023-04-24T10:21:51;4.63;;;4.17;;
14883;SDS011;7534;50.762;7.000;2023-04-24T10:24:19;5.10;;;3.73;;
14883;SDS011;7534;50.762;7.000;2023-04-24T10:26:47;6.23;;;4.00;;
14883;SDS011;7534;50.762;7.000;2023-04-24T10:29:15;5.73;;;3.90;;
14883;SDS011;7534;50.762;7.000;2023-04-24T10:31:43;4.93;;;3.80;;
14883;SDS011;7534;50.762;7.000;2023-04-24T10:34:11;5.17;;;3.77;;
14883;SDS011;7534;50.762;7.000;2023-04-24T10:36:41;5.13;;;3.63;;
14883;SDS011;7534;50.762;7.000;2023-04-24T10:39:14;5.17;;;3.30;;
14883;SDS011;7534;50.762;7.000;2023-04-24T10:41:43;5.30;;;3.50;;
14883;SDS011;7534;50.762;7.000;2023-04-24T10:44:11;4.33;;;3.50;;
14883;SDS011;7534;50.762;7.000;2023-04-24T10:46:46;5.13;;;3.00;;
14883;SDS011;7534;50.762;7.000;2023-04-24T10:49:27;5.60;;;3.67;;
14883;SDS011;7534;50.762;7.000;2023-04-24T10:51:59;6.13;;;3.67;;
14883;SDS011;7534;50.762;7.000;2023-04-24T10:54:41;7.10;;;4.17;;
14883;SDS011;7534;50.762;7.000;2023-04-24T10:59:43;7.13;;;4.30;;
14883;SDS011;7534;50.762;7.000;2023-04-24T11:02:10;5.20;;;4.37;;
14883;SDS011;7534;50.762;7.000;2023-04-24T11:04:40;7.00;;;4.43;;
14883;SDS011;7534;50.762;7.000;2023-04-24T11:07:08;9.50;;;4.77;;
14883;SDS011;7534;50.762;7.000;2023-04-24T11:09:35;8.13;;;5.20;;
14883;SDS011;7534;50.762;7.000;2023-04-24T11:12:05;8.80;;;5.27;;
14883;SDS011;7534;50.762;7.000;2023-04-24T11:17:30;9.27;;;5.50;;
14883;SDS011;7534;50.762;7.000;2023-04-24T11:20:08;9.00;;;6.30;;
14883;SDS011;7534;50.762;7.000;2023-04-24T11:22:37;9.30;;;5.40;;
14883;SDS011;7534;50.762;7.000;2023-04-24T11:25:07;8.60;;;5.13;;
14883;SDS011;7534;50.762;7.000;2023-04-24T11:27:43;6.03;;;4.90;;
14883;SDS011;7534;50.762;7.000;2023-04-24T11:30:11;6.23;;;4.73;;
14883;SDS011;7534;50.762;7.000;2023-04-24T11:32:40;9.17;;;5.07;;
14883;SDS011;7534;50.762;7.000;2023-04-24T11:35:17;6.47;;;4.73;;
14883;SDS011;7534;50.762;7.000;2023-04-24T11:37:50;7.03;;;4.27;;
14883;SDS011;7534;50.762;7.000;2023-04-24T11:40:21;7.53;;;3.90;;
14883;SDS011;7534;50.762;7.000;2023-04-24T11:42:49;7.07;;;4.20;;
14883;SDS011;7534;50.762;7.000;2023-04-24T11:45:18;5.40;;;3.77;;
14883;SDS011;7534;50.762;7.000;2023-04-24T11:47:48;5.67;;;3.80;;
14883;SDS011;7534;50.762;7.000;2023-04-24T11:50:15;7.03;;;3.83;;
14883;SDS011;7534;50.762;7.000;2023-04-24T11:52:43;6.13;;;3.30;;
14883;SDS011;7534;50.762;7.000;2023-04-24T11:57:42;6.07;;;3.30;;
14883;SDS011;7534;50.762;7.000;2023-04-24T12:00:31;6.60;;;3.70;;
14883;SDS011;7534;50.762;7.000;2023-04-24T12:05:35;7.10;;;3.67;;
14883;SDS011;7534;50.762;7.000;2023-04-24T12:08:02;8.67;;;4.43;;
14883;SDS011;7534;50.762;7.000;2023-04-24T12:10:29;8.23;;;4.30;;
14883;SDS011;7534;50.762;7.000;2023-04-24T12:12:57;6.17;;;3.97;;
14883;SDS011;7534;50.762;7.000;2023-04-24T12:15:24;6.53;;;4.60;;
14883;SDS011;7534;50.762;7.000;2023-04-24T12:17:51;7.27;;;5.23;;
14883;SDS011;7534;50.762;7.000;2023-04-24T12:20:23;8.30;;;5.20;;
14883;SDS011;7534;50.762;7.000;2023-04-24T12:22:54;8.67;;;5.20;;
14883;SDS011;7534;50.762;7.000;2023-04-24T12:25:23;10.53;;;6.33;;
14883;SDS011;7534;50.762;7.000;2023-04-24T12:30:28;6.40;;;4.83;;
14883;SDS011;7534;50.762;7.000;2023-04-24T12:32:57;10.90;;;5.30;;
14883;SDS011;7534;50.762;7.000;2023-04-24T12:35:25;8.83;;;4.97;;
14883;SDS011;7534;50.762;7.000;2023-04-24T12:38:05;9.30;;;4.97;;
14883;SDS011;7534;50.762;7.000;2023-04-24T12:40:32;8.33;;;5.30;;
14883;SDS011;7534;50.762;7.000;2023-04-24T12:42:59;9.10;;;4.87;;
14883;SDS011;7534;50.762;7.000;2023-04-24T12:45:27;9.00;;;4.40;;
14883;SDS011;7534;50.762;7.000;2023-04-24T12:47:53;7.88;;;4.53;;
14883;SDS011;7534;50.762;7.000;2023-04-24T12:50:19;6.72;;;4.30;;
14883;SDS011;7534;50.762;7.000;2023-04-24T12:52:46;5.18;;;4.30;;
14883;SDS011;7534;50.762;7.000;2023-04-24T12:55:12;7.07;;;4.47;;
14883;SDS011;7534;50.762;7.000;2023-04-24T12:57:39;6.53;;;3.83;;
14883;SDS011;7534;50.762;7.000;2023-04-24T13:00:06;5.30;;;3.97;;
14883;SDS011;7534;50.762;7.000;2023-04-24T13:02:33;7.30;;;4.43;;
14883;SDS011;7534;50.762;7.000;2023-04-24T13:05:00;8.10;;;4.83;;
14883;SDS011;7534;50.762;7.000;2023-04-24T13:07:26;7.17;;;4.47;;
14883;SDS011;7534;50.762;7.000;2023-04-24T13:09:53;8.20;;;4.97;;
14883;SDS011;7534;50.762;7.000;2023-04-24T13:12:21;7.15;;;5.03;;
14883;SDS011;7534;50.762;7.000;2023-04-24T13:14:49;6.33;;;4.30;;
14883;SDS011;7534;50.762;7.000;2023-04-24T13:17:15;7.47;;;4.30;;
14883;SDS011;7534;50.762;7.000;2023-04-24T13:19:42;5.45;;;3.75;;
14883;SDS011;7534;50.762;7.000;2023-04-24T13:22:09;5.55;;;3.25;;
14883;SDS011;7534;50.762;7.000;2023-04-24T13:24:37;5.80;;;3.38;;
14883;SDS011;7534;50.762;7.000;2023-04-24T13:27:06;5.47;;;3.60;;
14883;SDS011;7534;50.762;7.000;2023-04-24T13:29:32;5.55;;;3.30;;
14883;SDS011;7534;50.762;7.000;2023-04-24T13:31:58;5.65;;;4.07;;
14883;SDS011;7534;50.762;7.000;2023-04-24T13:34:25;6.38;;;4.30;;
14883;SDS011;7534;50.762;7.000;2023-04-24T13:36:52;7.22;;;3.80;;
14883;SDS011;7534;50.762;7.000;2023-04-24T13:39:20;4.70;;;3.70;;
14883;SDS011;7534;50.762;7.000;2023-04-24T13:41:47;6.22;;;3.75;;
14883;SDS011;7534;50.762;7.000;2023-04-24T13:44:14;6.95;;;4.55;;
14883;SDS011;7534;50.762;7.000;2023-04-24T13:46:41;6.32;;;4.00;;
14883;SDS011;7534;50.762;7.000;2023-04-24T13:49:09;6.15;;;4.60;;
14883;SDS011;7534;50.762;7.000;2023-04-24T13:51:36;6.20;;;3.85;;
14883;SDS011;7534;50.762;7.000;2023-04-24T13:54:02;5.87;;;4.80;;
14883;SDS011;7534;50.762;7.000;2023-04-24T13:56:28;8.93;;;4.70;;
14883;SDS011;7534;50.762;7.000;2023-04-24T13:58:54;8.20;;;5.10;;
14883;SDS011;7534;50.762;7.000;2023-04-24T14:01:20;6.23;;;4.47;;
14883;SDS011;7534;50.762;7.000;2023-04-24T14:03:52;9.40;;;4.70;;
14883;SDS011;7534;50.762;7.000;2023-04-24T14:06:20;7.67;;;5.00;;
14883;SDS011;7534;50.762;7.000;2023-04-24T14:08:47;8.47;;;5.07;;
14883;SDS011;7534;50.762;7.000;2023-04-24T14:11:15;9.10;;;5.10;;
14883;SDS011;7534;50.762;7.000;2023-04-24T14:13:42;7.57;;;4.43;;
14883;SDS011;7534;50.762;7.000;2023-04-24T14:16:09;5.73;;;4.60;;
14883;SDS011;7534;50.762;7.000;2023-04-24T14:18:35;5.87;;;4.00;;
14883;SDS011;7534;50.762;7.000;2023-04-24T14:21:03;7.65;;;4.78;;
14883;SDS011;7534;50.762;7.000;2023-04-24T14:23:33;7.32;;;4.68;;
14883;SDS011;7534;50.762;7.000;2023-04-24T14:25:59;7.03;;;4.65;;
14883;SDS011;7534;50.762;7.000;2023-04-24T14:28:25;6.05;;;4.20;;
14883;SDS011;7534;50.762;7.000;2023-04-24T14:30:53;7.63;;;4.63;;
14883;SDS011;7534;50.762;7.000;2023-04-24T14:33:19;8.10;;;4.30;;
14883;SDS011;7534;50.762;7.000;2023-04-24T14:35:45;9.35;;;4.50;;
14883;SDS011;7534;50.762;7.000;2023-04-24T14:38:11;5.80;;;4.05;;
14883;SDS011;7534;50.762;7.000;2023-04-24T14:40:37;6.27;;;4.00;;
14883;SDS011;7534;50.762;7.000;2023-04-24T14:43:03;6.27;;;3.93;;
14883;SDS011;7534;50.762;7.000;2023-04-24T14:45:29;8.70;;;4.43;;
14883;SDS011;7534;50.762;7.000;2023-04-24T14:47:55;5.20;;;3.83;;
14883;SDS011;7534;50.762;7.000;2023-04-24T14:50:21;6.03;;;3.97;;
14883;SDS011;7534;50.762;7.000;2023-04-24T14:52:48;4.23;;;3.73;;
14883;SDS011;7534;50.762;7.000;2023-04-24T14:55:14;7.03;;;4.00;;
14883;SDS011;7534;50.762;7.000;2023-04-24T14:57:41;6.80;;;3.47;;
14883;SDS011;7534;50.762;7.000;2023-04-24T15:00:13;6.03;;;3.67;;
14883;SDS011;7534;50.762;7.000;2023-04-24T15:02:39;5.47;;;4.13;;
14883;SDS011;7534;50.762;7.000;2023-04-24T15:05:07;5.32;;;4.20;;
14883;SDS011;7534;50.762;7.000;2023-04-24T15:07:33;5.55;;;4.07;;
14883;SDS011;7534;50.762;7.000;2023-04-24T15:10:00;8.60;;;4.07;;
14883;SDS011;7534;50.762;7.000;2023-04-24T15:12:27;5.15;;;3.72;;